Wednesday, April 23, 2014
06:44 UTC
  |  Log In   |  Register Free
Airport Search:

Enid Woodring Regional Airport
(KWDG)

FAA data valid effective April 3, 2014 until May 29, 2014 (unless otherwise noted).

 
 
 
 
 
 
 
 
 
 
 
 
 
 

Current Aviation Weather for Enid Woodring Regional Airport (KWDG)

The most recent METAR observation for KWDG was updated at: 0150 UTC
METAR Summary (Translated METAR)
KWDG
230150Z 12013KT 10SM FEW250 21/04 A2992 RMK LAST
KEND
(6.6 nm SW from KWDG)
230458Z AUTO 13010KT 10SM CLR 15/04 A2992 RMK AO2 SLP126 T01530042 $
TAF Summary (Translated TAF)
KEND
(6.6 nm SW from KWDG)
2300/2324 10009KT 9999 FEW150 FEW250 QNH2994INS BECMG 2309/2310 14015KT 9999 FEW150 QNH2989INS BECMG 2314/2315 17020G30KT 9999 FEW120 520003 QNH2971INS BECMG 2317/2318 17020G35KT 9999 SCT045 SCT120 BKN200 520003 QNH2971INS BECMG 2323/2324 18020G30KT 8000 -SHRA VCTS SCT045CB BKN150 BKN250 QNH2970INS TX26/2318Z TN11/2311Z AMD 230024 LAST NO AMDS AFT 2300 NEXT 2310
  Airport Weather Conditions for KWDG

 Current Weather at WDG
70° F
A Few Clouds
Southeast winds at 15.0 mph
WDG NOAA Radar

Pressure: 29.92 in
Humidity: 33%
Wind: Southeast at 15.0 MPH (13 KT)
Dew Point: 39.2°F
Visibility: 10.00 mi


Airport Weather Forecast for KWDG

Translated METAR and TAF for KWDG
Translated METAR for KWDG (0644 UTC 23 April 2014)
found at http://aviationweather.gov/adds/metars/
 
METAR text: KWDG 230150Z 12013KT 10SM FEW250 21/04 A2992 RMK LAST
Conditions at: KWDG (ENID/WOODRING , OK, US) observed 0150 UTC 23 April 2014
Temperature: 21.0°C (70°F)
Dewpoint: 4.0°C (39°F) [RH = 33%]
Pressure (altimeter): 29.92 inches Hg (1013.3 mb)
Winds: from the ESE (120 degrees) at 15 MPH (13 knots; 6.8 m/s)
Visibility: 10 or more miles (16+ km)
Ceiling: at least 12,000 feet AGL
Clouds: few clouds at 25000 feet AGL
Weather: no significant weather observed at this time
Translated TAF for KWDG

There is no translated TAF available for this airport

Find All Airport Services Find A Hotel Find A Rental Car Find A Golf Course Find A Restaurant $100 Hamburger



FBO's on the Field
FBO Company Facility Photos Services Transportation Aviation Fuel Prices: Prices include tax
Catering Weather Repair Courtesy Rental Type 100LL JetA JetA+ MOGAS 8087
 
Enid Woodring Regional Airport

This FBO has not yet been rated
FS:Phillips66
Last Updated: Mar-28
Login to update fuel prices
SS:
Contact Enid Woodring Regional AirportMore FBO Information
 
Add another FBO Facility Photos Catering Weather Repair Courtesy Rental Type 100LL JetA JetA+ MOGAS 8087
Services Transportation Aviation Fuel Prices: Prices include tax


GlobalAir.com Airport Resource Center model-print
model-print
model-print
model-print